createdAt,value
2023-08-12T00:02:07.406Z,99752.56
2023-08-12T00:07:10.778Z,99743.50
2023-08-12T00:12:14.133Z,99738.91
2023-08-12T00:17:18.961Z,99734.50
2023-08-12T00:22:22.299Z,99727.34
2023-08-12T00:27:26.118Z,99724.00
2023-08-12T00:32:30.749Z,99719.41
2023-08-12T00:37:33.875Z,99717.75
2023-08-12T00:42:37.089Z,99712.69
2023-08-12T00:47:42.382Z,99704.03
2023-08-12T00:52:46.477Z,99695.84
2023-08-12T00:57:49.814Z,99690.34
2023-08-12T01:02:56.349Z,99670.41
2023-08-12T01:07:59.647Z,99672.09
2023-08-12T01:13:13.903Z,99678.47
2023-08-12T01:18:19.770Z,99678.03
2023-08-12T01:23:24.551Z,99661.50
2023-08-12T01:28:28.226Z,99658.13
2023-08-12T01:33:37.443Z,99649.25
2023-08-12T01:38:43.294Z,99649.66
2023-08-12T01:43:47.169Z,99643.28
2023-08-12T01:48:50.391Z,99640.34
2023-08-12T01:53:54.842Z,99631.66
2023-08-12T01:58:57.943Z,99637.16
2023-08-12T02:04:01.097Z,99641.38
2023-08-12T02:09:06.170Z,99633.13
2023-08-12T02:14:09.267Z,99644.13
2023-08-12T02:19:12.392Z,99646.69
2023-08-12T02:24:17.224Z,99652.41
2023-08-12T02:29:20.311Z,99646.88
2023-08-12T02:34:23.446Z,99655.59
2023-08-12T02:39:27.888Z,99668.91
2023-08-12T02:44:31.329Z,99688.19
2023-08-12T02:49:34.770Z,99694.97
2023-08-12T02:54:39.225Z,99695.78
2023-08-12T02:59:42.705Z,99710.59
2023-08-12T03:04:45.813Z,99717.13
2023-08-12T03:09:51.432Z,99730.63
2023-08-12T03:14:54.534Z,99752.41
2023-08-12T03:20:00.711Z,99752.00
2023-08-12T03:25:06.588Z,99757.06
2023-08-12T03:30:11.116Z,99760.88
2023-08-12T03:35:14.407Z,99752.69
2023-08-12T03:40:19.294Z,99744.25
2023-08-12T03:45:22.623Z,99737.28
2023-08-12T03:50:26.091Z,99763.50
2023-08-12T03:55:32.979Z,99756.72
2023-08-12T04:00:36.207Z,99777.91
2023-08-12T04:05:39.397Z,99781.31
2023-08-12T04:10:46.835Z,99777.47
2023-08-12T04:15:51.562Z,99784.25
2023-08-12T04:20:55.487Z,99778.75
2023-08-12T04:26:00.530Z,99743.38
2023-08-12T04:31:08.739Z,99727.91
2023-08-12T04:36:12.460Z,99714.59
2023-08-12T04:41:16.915Z,99727.28
2023-08-12T04:46:20.197Z,99717.75
2023-08-12T04:51:23.396Z,99708.44
2023-08-12T04:56:30.008Z,99707.38
2023-08-12T05:01:33.173Z,99723.25
2023-08-12T05:06:36.660Z,99729.19
2023-08-12T05:11:41.373Z,99715.19
2023-08-12T05:16:44.825Z,99714.78
2023-08-12T05:21:48.328Z,99719.03
2023-08-12T05:26:52.774Z,99716.88
2023-08-12T05:31:56.188Z,99716.94
2023-08-12T05:36:59.373Z,99713.13
2023-08-12T05:42:04.102Z,99702.78
2023-08-12T05:47:07.249Z,99702.94
2023-08-12T05:52:11.183Z,99706.16
2023-08-12T05:57:16.105Z,99700.03
2023-08-12T06:02:19.659Z,99704.31
2023-08-12T06:07:24.230Z,99699.66
2023-08-12T06:12:28.759Z,99687.34
2023-08-12T06:17:31.963Z,99685.69
2023-08-12T06:22:35.114Z,99687.16
2023-08-12T06:27:39.999Z,99705.38
2023-08-12T06:32:43.270Z,99720.88
2023-08-12T06:37:46.403Z,99708.16
2023-08-12T06:42:51.354Z,99714.44
2023-08-12T06:47:54.470Z,99695.97
2023-08-12T06:52:57.661Z,99679.09
2023-08-12T06:58:02.163Z,99671.22
2023-08-12T07:03:05.950Z,99682.50
2023-08-12T07:08:09.064Z,99666.53
2023-08-12T07:13:13.520Z,99670.50
2023-08-12T07:18:16.690Z,99655.44
2023-08-12T07:23:19.826Z,99660.75
2023-08-12T07:28:24.275Z,99667.72
2023-08-12T07:33:27.389Z,99651.88
2023-08-12T07:38:30.813Z,99661.25
2023-08-12T07:43:35.330Z,99649.09
2023-08-12T07:48:39.342Z,99635.56
2023-08-12T07:53:42.644Z,99651.94
2023-08-12T07:58:48.764Z,99668.53
2023-08-12T08:03:51.893Z,99670.34
2023-08-12T08:08:55.148Z,99667.59
2023-08-12T08:14:00.331Z,99659.50
2023-08-12T08:19:03.512Z,99663.41
2023-08-12T08:24:07.192Z,99667.00
2023-08-12T08:29:11.652Z,99675.84
2023-08-12T08:34:14.810Z,99660.84
2023-08-12T08:39:18.372Z,99658.97
2023-08-12T08:44:24.669Z,99668.34
2023-08-12T08:49:28.380Z,99652.34
2023-08-12T08:54:31.710Z,99649.69
2023-08-12T08:59:36.138Z,99658.41
2023-08-12T09:04:40.429Z,99650.38
2023-08-12T09:09:49.049Z,99649.28
2023-08-12T09:14:53.578Z,99640.91
2023-08-12T09:19:56.917Z,99629.31
2023-08-12T09:25:00.558Z,99641.03
2023-08-12T09:30:07.044Z,99620.25
2023-08-12T09:35:18.128Z,99607.94
2023-08-12T09:40:21.652Z,99628.50
2023-08-12T09:45:27.374Z,99622.84
2023-08-12T09:50:30.784Z,99632.69
2023-08-12T09:55:37.457Z,99614.34
2023-08-12T10:00:43.504Z,99601.22
2023-08-12T10:05:47.068Z,99602.38
2023-08-12T10:11:03.220Z,99620.72
2023-08-12T10:16:15.219Z,99595.66
2023-08-12T10:21:19.360Z,99613.50
2023-08-12T10:26:23.842Z,99604.59
2023-08-12T10:31:29.987Z,99620.91
2023-08-12T10:36:37.403Z,99621.19
2023-08-12T10:41:53.570Z,99642.66
2023-08-12T10:47:00.410Z,99651.88
2023-08-12T10:52:03.946Z,99656.78
2023-08-12T10:57:12.775Z,99645.22
2023-08-12T11:02:18.858Z,99671.28
2023-08-12T11:07:24.143Z,99654.28
2023-08-12T11:12:31.972Z,99655.97
2023-08-12T11:17:37.631Z,99644.22
2023-08-12T11:22:43.098Z,99644.44
2023-08-12T11:27:47.440Z,99630.56
2023-08-12T11:32:53.432Z,99620.88
2023-08-12T11:37:58.741Z,99635.69
2023-08-12T11:43:01.842Z,99653.44
2023-08-12T11:48:07.104Z,99636.09
2023-08-12T11:53:10.558Z,99606.38
2023-08-12T11:58:19.707Z,99579.88
2023-08-12T12:03:24.255Z,99592.06
2023-08-12T12:08:27.734Z,99592.13
2023-08-12T12:13:32.030Z,99598.09
2023-08-12T12:18:37.962Z,99614.84
2023-08-12T12:23:41.307Z,99621.94
2023-08-12T12:28:44.423Z,99608.81
2023-08-12T12:33:48.881Z,99606.47
2023-08-12T12:38:52.364Z,99620.63
2023-08-12T12:43:55.737Z,99621.09
2023-08-12T12:49:00.245Z,99642.28
2023-08-12T12:54:03.548Z,99644.28
2023-08-12T12:59:06.691Z,99651.97
2023-08-12T13:04:11.381Z,99627.25
2023-08-12T13:09:14.504Z,99620.72
2023-08-12T13:14:19.903Z,99614.00
2023-08-12T13:19:24.707Z,99591.44
2023-08-12T13:24:27.802Z,99586.38
2023-08-12T13:29:32.928Z,99566.38
2023-08-12T13:34:37.362Z,99560.84
2023-08-12T13:39:40.508Z,99556.84
2023-08-12T13:44:43.582Z,99548.09
2023-08-12T13:49:48.003Z,99555.88
2023-08-12T13:54:51.139Z,99561.38
2023-08-12T13:59:54.249Z,99568.59
2023-08-12T14:04:58.706Z,99562.31
2023-08-12T14:10:01.989Z,99552.00
2023-08-12T14:15:05.976Z,99546.59
2023-08-12T14:20:11.860Z,99544.94
2023-08-12T14:25:15.287Z,99541.94
2023-08-12T14:30:20.258Z,99526.44
2023-08-12T14:35:25.375Z,99542.63
2023-08-12T14:40:29.112Z,99522.94
2023-08-12T14:45:32.259Z,99503.50
2023-08-12T14:50:39.041Z,99498.78
2023-08-12T14:55:43.413Z,99490.88
2023-08-12T15:00:48.336Z,99492.25
2023-08-12T15:06:02.367Z,99497.38
2023-08-12T15:11:05.654Z,99479.19
2023-08-12T15:16:08.908Z,99476.44
2023-08-12T15:21:13.398Z,99488.06
2023-08-12T15:26:16.523Z,99486.25
2023-08-12T15:31:19.634Z,99486.78
2023-08-12T15:36:24.080Z,99497.66
2023-08-12T15:41:27.187Z,99500.13
2023-08-12T15:46:30.689Z,99501.47
2023-08-12T15:51:35.689Z,99510.56
2023-08-12T15:56:38.820Z,99515.88
2023-08-12T16:01:41.968Z,99517.53
2023-08-12T16:06:47.019Z,99515.28
2023-08-12T16:11:50.484Z,99513.59
2023-08-12T16:16:53.666Z,99524.03
2023-08-12T16:21:58.490Z,99522.69
2023-08-12T16:27:03.976Z,99521.88
2023-08-12T16:32:08.245Z,99516.25
2023-08-12T16:37:20.980Z,99526.25
2023-08-12T16:42:25.001Z,99527.50
2023-08-12T16:47:30.541Z,99531.38
2023-08-12T16:52:36.721Z,99523.97
2023-08-12T16:57:39.896Z,99536.41
2023-08-12T17:02:43.088Z,99540.09
2023-08-12T17:07:47.567Z,99543.38
2023-08-12T17:12:50.798Z,99549.78
2023-08-12T17:17:54.025Z,99530.41
2023-08-12T17:22:58.507Z,99534.81
2023-08-12T17:28:01.615Z,99540.00
2023-08-12T17:33:05.130Z,99540.16
2023-08-12T17:38:09.711Z,99532.06
2023-08-12T17:43:12.853Z,99513.91
2023-08-12T17:48:15.992Z,99512.09
2023-08-12T17:53:20.600Z,99501.16
2023-08-12T17:58:23.931Z,99518.41
2023-08-12T18:03:27.355Z,99520.34
2023-08-12T18:08:32.020Z,99526.56
2023-08-12T18:13:35.134Z,99525.53
2023-08-12T18:18:38.311Z,99538.97
2023-08-12T18:23:43.047Z,99546.72
2023-08-12T18:28:46.155Z,99551.59
2023-08-12T18:33:49.513Z,99556.84
2023-08-12T18:38:53.961Z,99564.38
2023-08-12T18:43:57.072Z,99575.19
2023-08-12T18:49:00.193Z,99584.41
2023-08-12T18:54:05.597Z,99593.28
2023-08-12T18:59:09.104Z,99603.78
2023-08-12T19:04:13.204Z,99615.97
2023-08-12T19:09:18.330Z,99635.44
2023-08-12T19:14:21.993Z,99633.47
2023-08-12T19:19:25.280Z,99638.75
2023-08-12T19:24:29.722Z,99659.66
2023-08-12T19:29:32.869Z,99669.25
2023-08-12T19:34:35.961Z,99684.13
2023-08-12T19:39:40.432Z,99692.03
2023-08-12T19:44:44.224Z,99702.44
2023-08-12T19:49:47.306Z,99718.31
2023-08-12T19:54:51.760Z,99715.16
2023-08-12T19:59:54.938Z,99724.69
2023-08-12T20:04:59.925Z,99735.03
2023-08-12T20:10:04.549Z,99736.72
2023-08-12T20:15:08.637Z,99741.16
2023-08-12T20:20:13.885Z,99736.28
2023-08-12T20:25:18.338Z,99746.44
2023-08-12T20:30:21.881Z,99738.59
2023-08-12T20:35:24.989Z,99748.09
2023-08-12T20:40:29.460Z,99752.97
2023-08-12T20:45:32.880Z,99763.53
2023-08-12T20:50:36.380Z,99755.06
2023-08-12T20:55:40.824Z,99758.03
2023-08-12T21:00:44.012Z,99748.72
2023-08-12T21:05:51.113Z,99754.00
2023-08-12T21:10:56.406Z,99759.69
2023-08-12T21:15:59.553Z,99762.22
2023-08-12T21:21:03.562Z,99771.06
2023-08-12T21:26:08.082Z,99772.53
2023-08-12T21:31:13.108Z,99779.91
2023-08-12T21:36:16.317Z,99775.19
2023-08-12T21:41:21.049Z,99784.50
2023-08-12T21:46:24.629Z,99791.91
2023-08-12T21:51:27.823Z,99795.28
2023-08-12T21:56:32.241Z,99797.78
2023-08-12T22:01:35.833Z,99803.03
2023-08-12T22:06:39.081Z,99806.91
2023-08-12T22:11:43.623Z,99807.72
2023-08-12T22:16:46.727Z,99815.56
2023-08-12T22:21:49.860Z,99827.28
2023-08-12T22:26:54.794Z,99811.91
2023-08-12T22:31:57.982Z,99792.28
2023-08-12T22:37:01.117Z,99797.00
2023-08-12T22:42:05.791Z,99798.72
2023-08-12T22:47:09.208Z,99792.13
2023-08-12T22:52:12.936Z,99800.00
2023-08-12T22:57:18.068Z,99786.22
2023-08-12T23:02:21.540Z,99783.66
2023-08-12T23:07:25.134Z,99777.94
2023-08-12T23:12:30.029Z,99778.16
2023-08-12T23:17:33.537Z,99771.16
2023-08-12T23:22:37.006Z,99769.44
2023-08-12T23:27:41.466Z,99764.56
2023-08-12T23:32:45.497Z,99769.47
2023-08-12T23:37:49.447Z,99772.22
2023-08-12T23:42:53.931Z,99775.56
2023-08-12T23:47:57.208Z,99774.94
2023-08-12T23:53:00.801Z,99770.50
2023-08-12T23:58:06.235Z,99777.91
